Terminal Aerodrome Forecast
Issued by NWS Twin Cities, MN

Home | Current Version | Previous Version | Graphics & Text | Print | Product List | Glossary On
Versions: 1 2 3 4 5 6 7 8 9 10 11 12 13 14 15 16 17 18 19
000
FTUS43 KMPX 301146
TAFEAU
TAF
KEAU 301146Z 3012/3112 24003KT P6SM BKN070
     FM301900 19007KT P6SM SCT050 BKN150
      TEMPO 3022/3102 6SM -RA BKN050 OVC100
     FM310300 30008KT P6SM SCT030 BKN060=

USA.gov is the U.S. government's official web portal to all federal, state and local government web resources and services.